Time;durP1;ratioP1;P1;durP2;ratioP2;P2;SDS_P1;SDS_P2;PMS_P1;PMS_P2;Temp;Humidity;BMP_temperature;BMP_pressure;BME280_temperature;BME280_humidity;BME280_pressure;Samples;Min_cycle;Max_cycle;Signal;HPM_P1;HPM_P2
2022/08/23 00:01:17;;;;;;;2.27;1.90;;;;;;;;;;5050038;28;20754;-92
2022/08/23 00:03:45;;;;;;;2.97;2.10;;;;;;;;;;5056520;28;20844;-92
2022/08/23 00:06:14;;;;;;;1.97;1.87;;;;;;;;;;5055148;28;20200;-92
2022/08/23 00:08:45;;;;;;;2.33;2.03;;;;;;;;;;5043555;28;20251;-92
2022/08/23 00:11:34;;;;;;;2.03;1.90;;;;;;;;;;5053981;28;20281;-92
2022/08/23 00:14:04;;;;;;;1.67;1.57;;;;;;;;;;5056733;28;20265;-92
2022/08/23 00:16:35;;;;;;;2.83;1.80;;;;;;;;;;5043560;28;20303;-92
2022/08/23 00:19:06;;;;;;;1.87;1.63;;;;;;;;;;5056828;28;20247;-92
2022/08/23 00:21:34;;;;;;;3.67;1.93;;;;;;;;;;5072101;28;20226;-92
2022/08/23 00:24:03;;;;;;;1.97;1.80;;;;;;;;;;5061548;28;20218;-92
2022/08/23 00:26:51;;;;;;;1.93;1.77;;;;;;;;;;5066204;28;20200;-91
2022/08/23 00:29:24;;;;;;;2.10;1.63;;;;;;;;;;5042342;28;20293;-92
2022/08/23 00:31:53;;;;;;;4.07;1.90;;;;;;;;;;5047929;28;20223;-92
2022/08/23 00:34:23;;;;;;;1.80;1.70;;;;;;;;;;5055765;28;20297;-92
2022/08/23 00:36:53;;;;;;;2.10;2.00;;;;;;;;;;5068634;28;20257;-91
2022/08/23 00:39:22;;;;;;;1.97;1.87;;;;;;;;;;5047195;28;20311;-91
2022/08/23 00:41:50;;;;;;;1.97;1.87;;;;;;;;;;5063816;28;20642;-91
2022/08/23 00:50:02;;;;;;;1.97;1.80;;;;;;;;;;5059541;28;20210;-92
2022/08/23 00:52:32;;;;;;;1.70;1.60;;;;;;;;;;5031907;28;20233;-92
2022/08/23 00:55:04;;;;;;;2.50;2.10;;;;;;;;;;5056461;28;20286;-92
2022/08/23 00:57:36;;;;;;;2.13;1.90;;;;;;;;;;5064298;28;20218;-92
2022/08/23 01:00:04;;;;;;;2.00;1.87;;;;;;;;;;5060626;28;20240;-91
2022/08/23 01:02:32;;;;;;;2.53;1.80;;;;;;;;;;5039799;28;20355;-92
2022/08/23 01:05:01;;;;;;;2.97;1.73;;;;;;;;;;5048508;28;20205;-92
2022/08/23 01:07:35;;;;;;;2.27;1.80;;;;;;;;;;5058338;28;20267;-92
2022/08/23 01:10:08;;;;;;;1.50;1.40;;;;;;;;;;5048984;28;20199;-92
2022/08/23 01:12:37;;;;;;;1.90;1.67;;;;;;;;;;5053756;28;20239;-92
2022/08/23 01:15:24;;;;;;;3.43;2.10;;;;;;;;;;5049011;28;20290;-92
2022/08/23 01:18:04;;;;;;;1.80;1.67;;;;;;;;;;5047296;28;20220;-92
2022/08/23 01:20:42;;;;;;;2.13;1.97;;;;;;;;;;5051588;28;20223;-92
2022/08/23 01:23:21;;;;;;;2.67;2.03;;;;;;;;;;5056925;28;20233;-92
2022/08/23 01:25:53;;;;;;;2.73;2.10;;;;;;;;;;5049626;28;20218;-92
2022/08/23 01:28:20;;;;;;;1.73;1.57;;;;;;;;;;5051555;28;20254;-91
2022/08/23 01:30:50;;;;;;;1.67;1.57;;;;;;;;;;5053116;28;20211;-92
2022/08/23 01:33:18;;;;;;;2.70;1.57;;;;;;;;;;5066556;28;20228;-92
2022/08/23 01:35:48;;;;;;;3.23;1.60;;;;;;;;;;5071411;28;20211;-92
2022/08/23 01:38:21;;;;;;;1.90;1.80;;;;;;;;;;5053150;28;20222;-92
2022/08/23 01:40:50;;;;;;;3.07;2.30;;;;;;;;;;5064179;28;20213;-92
2022/08/23 01:43:23;;;;;;;3.20;2.00;;;;;;;;;;5071269;28;20227;-92
2022/08/23 01:45:51;;;;;;;2.43;1.67;;;;;;;;;;5066763;28;20218;-92
2022/08/23 01:48:20;;;;;;;1.97;1.60;;;;;;;;;;5049162;28;20198;-90
2022/08/23 01:50:48;;;;;;;1.80;1.70;;;;;;;;;;5071207;28;20385;-89
2022/08/23 01:53:16;;;;;;;2.23;1.73;;;;;;;;;;5048625;28;20566;-90
2022/08/23 01:55:47;;;;;;;2.60;1.80;;;;;;;;;;5062493;28;20208;-90
2022/08/23 01:58:16;;;;;;;2.10;1.90;;;;;;;;;;5070857;28;20290;-90
2022/08/23 02:00:44;;;;;;;2.70;1.60;;;;;;;;;;5054541;28;20694;-90
2022/08/23 02:03:12;;;;;;;3.73;1.93;;;;;;;;;;5064026;28;20229;-89
2022/08/23 02:05:40;;;;;;;2.50;2.00;;;;;;;;;;5066045;28;20230;-90
2022/08/23 02:10:59;;;;;;;2.87;1.87;;;;;;;;;;5054336;28;20208;-90
2022/08/23 02:13:34;;;;;;;2.37;1.90;;;;;;;;;;5054085;28;20657;-90
2022/08/23 02:16:01;;;;;;;2.40;2.00;;;;;;;;;;5055148;28;20683;-90
2022/08/23 02:18:30;;;;;;;2.70;1.93;;;;;;;;;;5059284;28;20211;-90
2022/08/23 02:20:57;;;;;;;2.50;2.07;;;;;;;;;;5071767;28;20242;-90
2022/08/23 02:23:26;;;;;;;2.00;1.90;;;;;;;;;;5061171;28;20206;-90
2022/08/23 02:25:57;;;;;;;2.00;1.80;;;;;;;;;;5064266;28;20609;-90
2022/08/23 02:28:24;;;;;;;2.10;1.67;;;;;;;;;;5069427;28;20204;-90
2022/08/23 02:30:53;;;;;;;1.80;1.70;;;;;;;;;;5050145;28;20203;-90
2022/08/23 02:33:27;;;;;;;3.27;1.90;;;;;;;;;;5053830;28;20218;-90
2022/08/23 02:35:58;;;;;;;2.07;1.87;;;;;;;;;;5070986;28;20207;-90
2022/08/23 02:38:25;;;;;;;3.80;1.87;;;;;;;;;;5048379;28;20207;-90
2022/08/23 02:40:56;;;;;;;1.87;1.70;;;;;;;;;;5070117;28;20301;-89
2022/08/23 02:45:52;;;;;;;2.27;1.80;;;;;;;;;;5085927;28;20214;-36
2022/08/23 02:48:21;;;;;;;1.87;1.77;;;;;;;;;;5073335;28;20228;-36
2022/08/23 02:50:48;;;;;;;2.27;2.10;;;;;;;;;;5088016;28;20194;-35
2022/08/23 02:53:16;;;;;;;2.37;1.90;;;;;;;;;;5068057;28;20206;-38
2022/08/23 02:55:45;;;;;;;5.93;2.30;;;;;;;;;;5071622;28;20210;-38
2022/08/23 02:58:12;;;;;;;1.87;1.73;;;;;;;;;;5090771;28;20227;-40
2022/08/23 03:00:39;;;;;;;4.43;1.90;;;;;;;;;;5082927;28;20223;-37
2022/08/23 03:03:07;;;;;;;2.20;1.60;;;;;;;;;;5069259;28;20210;-38
2022/08/23 03:05:35;;;;;;;1.60;1.50;;;;;;;;;;5077566;28;20239;-38
2022/08/23 03:08:02;;;;;;;2.87;2.03;;;;;;;;;;5078941;28;20227;-41
2022/08/23 03:10:29;;;;;;;1.80;1.70;;;;;;;;;;5083735;28;20225;-40
2022/08/23 03:12:57;;;;;;;2.87;2.07;;;;;;;;;;5076255;28;20360;-36
2022/08/23 03:15:24;;;;;;;1.77;1.67;;;;;;;;;;5073504;28;20206;-39
2022/08/23 03:17:51;;;;;;;1.93;1.77;;;;;;;;;;5068818;28;20244;-39
2022/08/23 03:20:19;;;;;;;1.83;1.50;;;;;;;;;;5079793;28;20223;-36
2022/08/23 03:22:47;;;;;;;1.97;1.87;;;;;;;;;;5068744;28;20198;-39
2022/08/23 03:25:14;;;;;;;2.80;2.00;;;;;;;;;;5082456;28;20216;-40
2022/08/23 03:27:42;;;;;;;2.57;1.70;;;;;;;;;;5092478;28;20317;-39
2022/08/23 03:30:09;;;;;;;2.00;1.80;;;;;;;;;;5092336;28;20202;-35
2022/08/23 03:32:36;;;;;;;2.13;1.87;;;;;;;;;;5076420;28;20269;-36
2022/08/23 03:35:04;;;;;;;2.37;1.93;;;;;;;;;;5081171;28;20201;-39
2022/08/23 03:37:31;;;;;;;4.23;2.30;;;;;;;;;;5081487;28;20348;-39
2022/08/23 03:39:59;;;;;;;6.00;2.03;;;;;;;;;;5078315;28;20232;-40
2022/08/23 03:42:27;;;;;;;3.30;1.70;;;;;;;;;;5084070;28;20197;-36
2022/08/23 03:44:54;;;;;;;4.07;1.93;;;;;;;;;;5091383;28;20304;-39
2022/08/23 03:47:21;;;;;;;4.00;1.93;;;;;;;;;;5073879;28;20225;-39
2022/08/23 03:49:49;;;;;;;3.50;1.77;;;;;;;;;;5089949;28;20233;-38
2022/08/23 03:52:16;;;;;;;2.20;2.00;;;;;;;;;;5083632;28;20205;-35
2022/08/23 03:54:43;;;;;;;2.93;2.20;;;;;;;;;;5077796;28;20201;-39
2022/08/23 03:57:12;;;;;;;3.67;1.90;;;;;;;;;;5081128;28;20220;-41
2022/08/23 03:59:41;;;;;;;2.37;1.70;;;;;;;;;;5090865;28;20208;-36
2022/08/23 04:02:09;;;;;;;4.50;1.90;;;;;;;;;;5074060;28;20211;-36
2022/08/23 04:04:37;;;;;;;2.33;1.50;;;;;;;;;;5081359;28;20205;-37
2022/08/23 04:07:04;;;;;;;1.93;1.77;;;;;;;;;;5078667;28;20224;-37
2022/08/23 04:09:31;;;;;;;1.80;1.70;;;;;;;;;;5074923;28;20200;-34
2022/08/23 04:11:58;;;;;;;2.40;2.20;;;;;;;;;;5082253;28;20198;-40
2022/08/23 04:14:26;;;;;;;4.13;2.43;;;;;;;;;;5090758;28;20205;-42
2022/08/23 04:16:54;;;;;;;2.10;1.97;;;;;;;;;;5069478;28;20240;-37
2022/08/23 04:19:21;;;;;;;3.40;2.37;;;;;;;;;;5069144;28;20214;-39
2022/08/23 04:21:51;;;;;;;1.97;1.80;;;;;;;;;;5082789;28;20288;-40
2022/08/23 04:24:18;;;;;;;2.67;2.47;;;;;;;;;;5079803;28;20201;-39
2022/08/23 04:26:45;;;;;;;2.27;2.03;;;;;;;;;;5090390;28;20248;-42
2022/08/23 04:29:15;;;;;;;4.67;2.20;;;;;;;;;;5090277;28;20204;-36
2022/08/23 04:31:44;;;;;;;2.13;1.70;;;;;;;;;;5081512;28;20199;-39
2022/08/23 04:34:11;;;;;;;3.70;1.90;;;;;;;;;;5065849;28;20209;-40
2022/08/23 04:36:40;;;;;;;2.33;1.90;;;;;;;;;;5073720;28;20206;-37
2022/08/23 04:39:07;;;;;;;1.77;1.67;;;;;;;;;;5077741;28;20217;-37
2022/08/23 04:44:19;;;;;;;1.90;1.80;;;;;;;;;;5071470;28;20231;-40
2022/08/23 04:46:48;;;;;;;2.50;2.03;;;;;;;;;;5074488;28;20316;-39
2022/08/23 04:49:15;;;;;;;1.97;1.87;;;;;;;;;;5075328;28;20267;-41
2022/08/23 04:51:42;;;;;;;2.13;1.90;;;;;;;;;;5070782;28;20202;-39
2022/08/23 04:54:10;;;;;;;3.10;2.03;;;;;;;;;;5078136;28;20248;-38
2022/08/23 04:56:37;;;;;;;2.20;2.00;;;;;;;;;;5080647;28;20208;-37
2022/08/23 04:59:05;;;;;;;2.53;2.00;;;;;;;;;;5072122;28;20213;-35
2022/08/23 05:01:35;;;;;;;4.80;1.90;;;;;;;;;;5071134;28;20226;-35
2022/08/23 05:04:04;;;;;;;2.10;1.73;;;;;;;;;;5077764;28;20225;-40
2022/08/23 05:06:31;;;;;;;1.70;1.60;;;;;;;;;;5085877;28;20220;-36
2022/08/23 05:09:00;;;;;;;2.27;2.13;;;;;;;;;;5071068;28;20206;-39
2022/08/23 05:11:28;;;;;;;2.43;2.23;;;;;;;;;;5083600;28;20197;-34
2022/08/23 05:13:55;;;;;;;4.53;2.50;;;;;;;;;;5092196;28;20206;-34
2022/08/23 05:16:22;;;;;;;3.57;2.40;;;;;;;;;;5082713;28;20250;-36
2022/08/23 05:18:49;;;;;;;4.87;2.30;;;;;;;;;;5085238;28;20218;-35
2022/08/23 05:21:19;;;;;;;3.27;2.40;;;;;;;;;;5081161;28;20225;-35
2022/08/23 05:23:46;;;;;;;3.07;2.30;;;;;;;;;;5067674;28;20203;-41
2022/08/23 05:26:13;;;;;;;5.40;2.13;;;;;;;;;;5068193;28;20216;-38
2022/08/23 05:28:41;;;;;;;3.00;2.10;;;;;;;;;;5069121;28;20222;-38
2022/08/23 05:31:10;;;;;;;3.13;2.70;;;;;;;;;;5070277;28;20225;-36
2022/08/23 05:33:37;;;;;;;2.27;2.07;;;;;;;;;;5076499;28;20217;-39
2022/08/23 05:36:06;;;;;;;3.17;2.27;;;;;;;;;;5074430;28;20208;-38
2022/08/23 05:38:34;;;;;;;2.33;1.87;;;;;;;;;;5074568;28;20245;-37
2022/08/23 05:41:02;;;;;;;2.77;2.10;;;;;;;;;;5070345;28;20288;-35
2022/08/23 05:43:29;;;;;;;2.50;2.23;;;;;;;;;;5071462;28;20206;-35
2022/08/23 05:46:01;;;;;;;2.47;2.20;;;;;;;;;;5073548;28;20209;-38
2022/08/23 05:48:28;;;;;;;2.30;2.10;;;;;;;;;;5074889;28;20313;-38
2022/08/23 05:50:55;;;;;;;2.67;2.47;;;;;;;;;;5074016;28;20278;-34
2022/08/23 05:53:22;;;;;;;2.80;2.60;;;;;;;;;;5074629;28;20215;-34
2022/08/23 05:55:51;;;;;;;3.33;2.10;;;;;;;;;;5082620;28;20244;-39
2022/08/23 05:58:18;;;;;;;2.80;2.23;;;;;;;;;;5075786;28;20230;-36
2022/08/23 06:00:45;;;;;;;3.67;2.17;;;;;;;;;;5074255;28;20225;-31
2022/08/23 06:03:13;;;;;;;3.80;2.20;;;;;;;;;;5080325;28;20202;-32
2022/08/23 06:05:40;;;;;;;2.10;2.00;;;;;;;;;;5075079;28;20272;-38
2022/08/23 06:08:08;;;;;;;2.13;2.03;;;;;;;;;;5070626;28;20241;-38
2022/08/23 06:10:36;;;;;;;2.40;2.17;;;;;;;;;;5088701;28;20212;-36
2022/08/23 06:13:07;;;;;;;4.20;2.00;;;;;;;;;;5095248;28;20201;-40
2022/08/23 06:15:34;;;;;;;2.80;1.83;;;;;;;;;;5089302;28;20206;-36
2022/08/23 06:18:01;;;;;;;3.23;2.00;;;;;;;;;;5074744;28;20434;-38
2022/08/23 06:20:29;;;;;;;1.77;1.67;;;;;;;;;;5090711;28;20206;-34
2022/08/23 06:22:58;;;;;;;2.30;2.10;;;;;;;;;;5072265;28;20268;-36
2022/08/23 06:25:26;;;;;;;2.60;2.40;;;;;;;;;;5078570;28;20205;-41
2022/08/23 06:27:53;;;;;;;3.30;2.20;;;;;;;;;;5078197;28;20223;-36
2022/08/23 06:30:21;;;;;;;2.63;2.43;;;;;;;;;;5074729;28;20562;-39
2022/08/23 06:32:48;;;;;;;2.20;2.00;;;;;;;;;;5075080;28;20202;-38
2022/08/23 06:35:15;;;;;;;2.33;2.23;;;;;;;;;;5084290;28;20208;-36
2022/08/23 06:37:43;;;;;;;3.33;2.30;;;;;;;;;;5071032;28;20316;-34
2022/08/23 06:40:10;;;;;;;2.57;2.33;;;;;;;;;;5090130;28;20226;-42
2022/08/23 06:42:38;;;;;;;3.73;2.20;;;;;;;;;;5079493;28;20235;-40
2022/08/23 06:45:08;;;;;;;2.10;1.90;;;;;;;;;;5071226;28;20221;-35
2022/08/23 06:47:39;;;;;;;3.90;2.40;;;;;;;;;;5073337;28;20226;-36
2022/08/23 06:50:07;;;;;;;3.37;2.03;;;;;;;;;;5082436;28;20199;-38
2022/08/23 06:52:37;;;;;;;2.33;2.07;;;;;;;;;;5072033;28;20201;-36
2022/08/23 06:55:05;;;;;;;2.63;2.43;;;;;;;;;;5072093;28;20207;-39
2022/08/23 06:57:32;;;;;;;6.70;2.50;;;;;;;;;;5088205;28;20318;-37
2022/08/23 06:59:59;;;;;;;4.07;2.37;;;;;;;;;;5094472;28;20218;-39
2022/08/23 07:02:26;;;;;;;4.10;2.33;;;;;;;;;;5074582;28;20223;-37
2022/08/23 07:04:55;;;;;;;3.10;2.17;;;;;;;;;;5082382;28;20260;-36
2022/08/23 07:07:22;;;;;;;4.70;2.83;;;;;;;;;;5058943;28;20303;-36
2022/08/23 07:09:50;;;;;;;3.93;2.43;;;;;;;;;;5083083;28;20212;-35
2022/08/23 07:12:18;;;;;;;2.33;2.13;;;;;;;;;;5082294;28;20262;-42
2022/08/23 07:14:45;;;;;;;7.00;2.30;;;;;;;;;;5071055;28;20212;-33
2022/08/23 07:17:13;;;;;;;4.57;2.47;;;;;;;;;;5079398;28;20221;-39
2022/08/23 07:19:42;;;;;;;3.00;2.20;;;;;;;;;;5078551;28;20223;-40
2022/08/23 07:22:11;;;;;;;2.67;1.95;;;;;;;;;;5072942;28;20232;-38
2022/08/23 07:24:41;;;;;;;3.00;2.20;;;;;;;;;;5077529;28;20293;-34
2022/08/23 07:27:09;;;;;;;1.98;1.85;;;;;;;;;;5083652;28;20230;-39
2022/08/23 07:29:38;;;;;;;2.83;2.00;;;;;;;;;;5089160;28;20655;-42
2022/08/23 07:32:05;;;;;;;2.17;1.92;;;;;;;;;;5074590;28;20267;-36
2022/08/23 07:34:33;;;;;;;2.13;1.75;;;;;;;;;;5082275;28;20199;-36
2022/08/23 07:37:00;;;;;;;4.93;2.10;;;;;;;;;;5088647;28;21983;-40
2022/08/23 07:39:30;;;;;;;2.28;1.92;;;;;;;;;;5070988;28;20206;-39
2022/08/23 07:41:59;;;;;;;1.75;1.60;;;;;;;;;;5077475;28;20225;-38
2022/08/23 07:44:27;;;;;;;2.38;1.95;;;;;;;;;;5081506;28;20208;-35
2022/08/23 07:46:54;;;;;;;2.83;1.88;;;;;;;;;;5073182;28;20315;-34
2022/08/23 07:49:23;;;;;;;2.22;2.00;;;;;;;;;;5071062;28;20228;-41
2022/08/23 07:51:54;;;;;;;2.28;2.00;;;;;;;;;;5078497;28;20295;-38
2022/08/23 07:54:24;;;;;;;2.65;1.70;;;;;;;;;;5078099;28;20265;-38
2022/08/23 07:56:52;;;;;;;1.70;1.60;;;;;;;;;;5072815;28;20228;-40
2022/08/23 07:59:22;;;;;;;2.67;1.90;;;;;;;;;;5072691;28;20334;-35
2022/08/23 08:01:50;;;;;;;1.70;1.60;;;;;;;;;;5071430;28;20219;-41
2022/08/23 08:04:17;;;;;;;4.10;1.85;;;;;;;;;;5092615;28;20201;-35
2022/08/23 08:06:46;;;;;;;2.17;1.70;;;;;;;;;;5091279;28;20258;-41
2022/08/23 08:09:14;;;;;;;2.58;1.80;;;;;;;;;;5068239;28;20204;-38
2022/08/23 08:11:43;;;;;;;3.45;2.05;;;;;;;;;;5087487;28;20199;-34
2022/08/23 08:14:11;;;;;;;2.58;1.88;;;;;;;;;;5093078;28;20261;-37
2022/08/23 08:16:40;;;;;;;3.08;2.13;;;;;;;;;;5088552;28;20211;-37
2022/08/23 08:19:09;;;;;;;2.83;1.80;;;;;;;;;;5071372;28;20202;-38
2022/08/23 08:21:36;;;;;;;1.63;1.52;;;;;;;;;;5084308;28;20289;-38
2022/08/23 08:24:04;;;;;;;3.33;2.00;;;;;;;;;;5078387;28;20200;-39
2022/08/23 08:26:31;;;;;;;2.28;1.73;;;;;;;;;;5079213;28;20283;-36
2022/08/23 08:28:59;;;;;;;3.75;1.80;;;;;;;;;;5072246;28;20213;-34
2022/08/23 08:31:27;;;;;;;3.33;1.98;;;;;;;;;;5072181;28;20199;-42
2022/08/23 08:33:54;;;;;;;2.22;1.70;;;;;;;;;;5080807;28;20213;-35
2022/08/23 08:36:32;;;;;;;6.13;2.08;;;;;;;;;;5076776;28;20291;-36
2022/08/23 08:38:59;;;;;;;2.03;1.75;;;;;;;;;;5070398;28;20200;-38
2022/08/23 08:41:34;;;;;;;3.35;1.98;;;;;;;;;;5080188;28;20252;-34
2022/08/23 08:46:36;;;;;;;6.32;1.60;;;;;;;;;;5041022;28;20558;-44
2022/08/23 08:49:05;;;;;;;1.95;1.75;;;;;;;;;;5043629;28;20224;-45
2022/08/23 08:51:37;;;;;;;1.67;1.58;;;;;;;;;;5049478;28;20422;-45
2022/08/23 08:54:07;;;;;;;2.50;1.80;;;;;;;;;;5044344;28;20209;-45
2022/08/23 08:56:36;;;;;;;4.47;1.70;;;;;;;;;;5055524;28;20204;-46
2022/08/23 08:59:05;;;;;;;1.85;1.50;;;;;;;;;;5050238;28;20636;-45
2022/08/23 09:01:35;;;;;;;2.70;2.00;;;;;;;;;;5048131;28;20223;-42
2022/08/23 09:04:03;;;;;;;4.40;1.80;;;;;;;;;;5043024;28;20491;-44
2022/08/23 09:06:32;;;;;;;2.55;1.77;;;;;;;;;;5054138;28;20196;-42
2022/08/23 09:09:08;;;;;;;5.68;1.85;;;;;;;;;;5040705;28;20662;-43
2022/08/23 09:11:45;;;;;;;2.33;1.88;;;;;;;;;;5062882;28;20192;-44
2022/08/23 09:14:30;;;;;;;3.15;1.55;;;;;;;;;;5068485;28;20352;-44
2022/08/23 09:17:02;;;;;;;1.42;1.33;;;;;;;;;;5039805;28;20238;-44
2022/08/23 09:19:32;;;;;;;2.50;1.58;;;;;;;;;;5052204;28;20314;-44
2022/08/23 09:22:01;;;;;;;2.45;1.50;;;;;;;;;;5048867;28;20224;-42
2022/08/23 09:24:28;;;;;;;3.75;1.42;;;;;;;;;;5053961;28;20234;-43
2022/08/23 09:26:55;;;;;;;1.55;1.40;;;;;;;;;;5064957;28;20216;-43
2022/08/23 09:29:23;;;;;;;2.65;1.80;;;;;;;;;;5060660;28;20201;-44
2022/08/23 09:31:52;;;;;;;7.55;1.50;;;;;;;;;;5050732;28;20206;-45
2022/08/23 09:34:23;;;;;;;3.58;1.35;;;;;;;;;;5061232;28;20215;-44
2022/08/23 09:36:50;;;;;;;1.77;1.50;;;;;;;;;;5050664;28;20227;-43
2022/08/23 09:39:25;;;;;;;2.05;1.60;;;;;;;;;;5037743;28;20232;-45
2022/08/23 09:41:52;;;;;;;2.00;1.65;;;;;;;;;;5050976;28;20226;-45
2022/08/23 09:44:30;;;;;;;3.33;1.65;;;;;;;;;;5051801;28;20206;-43
2022/08/23 09:47:05;;;;;;;2.13;1.52;;;;;;;;;;5046447;28;20227;-45
2022/08/23 09:49:34;;;;;;;1.73;1.40;;;;;;;;;;5053688;28;20260;-44
2022/08/23 09:52:02;;;;;;;2.25;1.40;;;;;;;;;;5057328;28;20209;-45
2022/08/23 09:54:30;;;;;;;2.00;1.38;;;;;;;;;;5055351;28;20203;-44
2022/08/23 09:56:59;;;;;;;4.70;1.50;;;;;;;;;;5052773;28;20230;-43
2022/08/23 09:59:34;;;;;;;2.33;1.48;;;;;;;;;;5049170;28;20207;-45
2022/08/23 10:02:02;;;;;;;1.92;1.55;;;;;;;;;;5045589;28;20224;-45
2022/08/23 10:04:31;;;;;;;2.67;1.38;;;;;;;;;;5053833;28;20200;-42
2022/08/23 10:07:01;;;;;;;4.07;1.80;;;;;;;;;;5047615;28;20551;-44
2022/08/23 10:09:29;;;;;;;2.90;1.45;;;;;;;;;;5047708;28;20274;-44
2022/08/23 10:11:57;;;;;;;1.77;1.63;;;;;;;;;;5050815;28;20562;-45
2022/08/23 10:14:25;;;;;;;1.83;1.20;;;;;;;;;;5051639;28;20201;-43
2022/08/23 10:16:59;;;;;;;3.90;1.23;;;;;;;;;;5045647;28;20614;-43
2022/08/23 10:19:29;;;;;;;1.40;1.30;;;;;;;;;;5048617;28;20208;-44
2022/08/23 10:22:02;;;;;;;1.40;1.30;;;;;;;;;;5047181;28;20579;-45
2022/08/23 10:24:37;;;;;;;2.60;1.67;;;;;;;;;;5047555;28;20207;-42
2022/08/23 10:29:54;;;;;;;2.45;1.70;;;;;;;;;;5051059;28;20205;-43
2022/08/23 10:32:24;;;;;;;2.50;1.60;;;;;;;;;;5051482;28;20201;-43
2022/08/23 10:35:01;;;;;;;3.90;1.40;;;;;;;;;;5064520;28;20304;-43
2022/08/23 10:37:39;;;;;;;2.45;1.60;;;;;;;;;;5061480;28;20241;-40
2022/08/23 10:40:11;;;;;;;2.45;1.50;;;;;;;;;;5063319;28;20547;-45
2022/08/23 10:42:42;;;;;;;1.70;1.35;;;;;;;;;;5076394;28;20303;-43
2022/08/23 10:45:15;;;;;;;5.78;1.95;;;;;;;;;;5038783;28;20220;-45
2022/08/23 10:47:50;;;;;;;2.72;1.52;;;;;;;;;;5052229;28;20239;-43
2022/08/23 10:50:21;;;;;;;1.52;1.42;;;;;;;;;;5048335;28;20700;-45
2022/08/23 10:52:53;;;;;;;1.95;1.27;;;;;;;;;;5039363;28;20221;-45
2022/08/23 10:55:34;;;;;;;2.35;1.40;;;;;;;;;;5044235;28;20205;-45
2022/08/23 10:58:02;;;;;;;1.83;1.45;;;;;;;;;;5043962;28;20697;-43
2022/08/23 11:00:30;;;;;;;1.55;1.40;;;;;;;;;;5047046;28;20216;-42
2022/08/23 11:03:00;;;;;;;1.70;1.60;;;;;;;;;;5035173;28;20541;-44
2022/08/23 11:05:30;;;;;;;5.63;1.50;;;;;;;;;;5050448;28;20294;-42
2022/08/23 11:08:00;;;;;;;2.47;1.58;;;;;;;;;;5044402;28;20242;-44
2022/08/23 11:10:31;;;;;;;3.70;1.65;;;;;;;;;;5060944;28;20208;-41
2022/08/23 11:13:00;;;;;;;2.53;1.30;;;;;;;;;;5049742;28;20198;-42
2022/08/23 11:15:29;;;;;;;2.35;1.50;;;;;;;;;;5042508;28;20219;-43
2022/08/23 11:17:58;;;;;;;2.45;1.60;;;;;;;;;;5042395;28;20227;-41
2022/08/23 11:20:43;;;;;;;1.63;1.30;;;;;;;;;;5051405;28;20227;-45
2022/08/23 11:23:14;;;;;;;5.47;1.70;;;;;;;;;;5040248;28;20242;-44
2022/08/23 11:25:43;;;;;;;1.73;1.40;;;;;;;;;;5047405;28;20235;-43
2022/08/23 11:28:29;;;;;;;2.33;1.52;;;;;;;;;;5046443;28;20231;-45
2022/08/23 11:31:16;;;;;;;1.80;1.42;;;;;;;;;;5043730;28;20201;-43
2022/08/23 11:33:45;;;;;;;1.98;1.50;;;;;;;;;;5049952;28;20195;-42
2022/08/23 11:36:17;;;;;;;3.03;1.77;;;;;;;;;;5047304;28;20213;-44
2022/08/23 11:39:02;;;;;;;2.88;1.63;;;;;;;;;;5041411;28;20229;-45
2022/08/23 11:41:31;;;;;;;4.40;1.70;;;;;;;;;;5050891;28;20266;-45
2022/08/23 11:44:17;;;;;;;1.95;1.40;;;;;;;;;;5047040;28;20237;-44
2022/08/23 11:46:56;;;;;;;2.20;1.30;;;;;;;;;;5042814;28;20204;-44
2022/08/23 11:49:41;;;;;;;2.58;1.38;;;;;;;;;;5043374;28;20195;-41
2022/08/23 11:52:15;;;;;;;1.88;1.60;;;;;;;;;;5028675;28;20542;-44
2022/08/23 11:54:52;;;;;;;2.28;1.50;;;;;;;;;;5049815;28;20202;-42
2022/08/23 11:57:26;;;;;;;3.22;1.50;;;;;;;;;;5050947;28;20234;-44
2022/08/23 12:00:03;;;;;;;5.38;1.88;;;;;;;;;;5046859;28;20212;-45
2022/08/23 12:02:34;;;;;;;1.48;1.38;;;;;;;;;;5036368;28;20231;-41
2022/08/23 12:05:02;;;;;;;2.35;1.40;;;;;;;;;;5046257;28;20215;-45
2022/08/23 12:07:46;;;;;;;1.55;1.42;;;;;;;;;;5044700;28;20699;-44
2022/08/23 12:10:15;;;;;;;3.05;1.58;;;;;;;;;;5055374;28;20208;-41
2022/08/23 12:12:44;;;;;;;4.13;1.52;;;;;;;;;;5050916;28;20450;-44
2022/08/23 12:15:13;;;;;;;1.60;1.40;;;;;;;;;;5046605;28;20242;-44
2022/08/23 12:17:59;;;;;;;1.42;1.33;;;;;;;;;;5034356;28;20226;-44
2022/08/23 12:20:29;;;;;;;1.98;1.77;;;;;;;;;;5042978;28;20226;-43
2022/08/23 12:23:01;;;;;;;1.58;1.30;;;;;;;;;;5046423;28;20243;-44
2022/08/23 12:25:30;;;;;;;2.65;1.55;;;;;;;;;;5046122;28;20215;-38
2022/08/23 12:28:06;;;;;;;3.28;1.48;;;;;;;;;;5046212;28;20490;-42
2022/08/23 12:30:36;;;;;;;1.83;1.35;;;;;;;;;;5046555;28;20246;-44
2022/08/23 12:33:06;;;;;;;1.63;1.52;;;;;;;;;;5039472;28;20200;-45
2022/08/23 12:35:38;;;;;;;2.88;1.80;;;;;;;;;;5047634;28;20204;-44
2022/08/23 12:38:08;;;;;;;1.58;1.42;;;;;;;;;;5039208;28;20232;-44
2022/08/23 12:40:36;;;;;;;2.08;1.38;;;;;;;;;;5058747;28;20204;-41
2022/08/23 12:43:06;;;;;;;2.55;1.52;;;;;;;;;;5065786;28;20215;-43
2022/08/23 12:45:38;;;;;;;1.67;1.50;;;;;;;;;;5066516;28;20503;-45
2022/08/23 12:48:07;;;;;;;2.45;1.88;;;;;;;;;;5048686;28;20227;-43
2022/08/23 12:50:35;;;;;;;2.08;1.58;;;;;;;;;;5052091;28;20200;-45
2022/08/23 12:53:04;;;;;;;1.73;1.58;;;;;;;;;;5034213;28;20198;-45
2022/08/23 12:55:32;;;;;;;1.60;1.50;;;;;;;;;;5064644;28;20210;-42
2022/08/23 12:57:59;;;;;;;2.85;1.45;;;;;;;;;;5048578;28;20227;-44
2022/08/23 13:00:30;;;;;;;1.77;1.52;;;;;;;;;;5040922;28;20206;-42
2022/08/23 13:02:59;;;;;;;2.05;1.80;;;;;;;;;;5043034;28;20275;-44
2022/08/23 13:05:31;;;;;;;2.42;1.75;;;;;;;;;;5050063;28;20589;-44
2022/08/23 13:07:58;;;;;;;2.03;1.60;;;;;;;;;;5042256;28;20675;-42
2022/08/23 13:10:25;;;;;;;1.65;1.50;;;;;;;;;;5045384;28;20226;-43
2022/08/23 13:12:53;;;;;;;3.58;1.50;;;;;;;;;;5048598;28;20550;-43
2022/08/23 13:15:35;;;;;;;4.05;1.60;;;;;;;;;;5039384;28;20208;-44
2022/08/23 13:18:03;;;;;;;3.55;2.65;;;;;;;;;;5040754;28;20216;-44
2022/08/23 13:20:30;;;;;;;2.38;1.48;;;;;;;;;;5049502;28;20215;-42
2022/08/23 13:22:59;;;;;;;1.88;1.60;;;;;;;;;;5052594;28;20227;-44
2022/08/23 13:25:28;;;;;;;1.73;1.48;;;;;;;;;;5049095;28;20201;-41
2022/08/23 13:27:57;;;;;;;2.08;1.50;;;;;;;;;;5046032;28;20216;-44
2022/08/23 13:30:25;;;;;;;2.53;1.70;;;;;;;;;;5045962;28;20211;-45
2022/08/23 13:32:53;;;;;;;1.77;1.65;;;;;;;;;;5040963;28;20204;-45
2022/08/23 13:35:26;;;;;;;2.40;1.80;;;;;;;;;;5043667;28;20204;-42
2022/08/23 13:37:55;;;;;;;1.70;1.60;;;;;;;;;;5044084;28;20587;-41
2022/08/23 13:40:25;;;;;;;2.83;1.92;;;;;;;;;;5038367;28;20228;-41
2022/08/23 13:42:53;;;;;;;1.88;1.75;;;;;;;;;;5047092;28;20206;-42
2022/08/23 13:45:23;;;;;;;1.70;1.60;;;;;;;;;;5047455;28;20215;-43
2022/08/23 13:47:52;;;;;;;2.38;1.50;;;;;;;;;;5036558;28;20225;-45
2022/08/23 13:50:23;;;;;;;1.70;1.60;;;;;;;;;;5044267;28;20295;-44
2022/08/23 13:52:51;;;;;;;3.72;1.70;;;;;;;;;;5044632;28;20660;-42
2022/08/23 13:55:19;;;;;;;3.13;1.70;;;;;;;;;;5057324;28;20204;-45
2022/08/23 13:57:46;;;;;;;2.08;1.50;;;;;;;;;;5064925;28;20229;-43
2022/08/23 14:00:13;;;;;;;4.00;1.60;;;;;;;;;;5065503;28;20231;-44
2022/08/23 14:02:40;;;;;;;2.50;1.60;;;;;;;;;;5051119;28;20228;-42
2022/08/23 14:05:08;;;;;;;1.63;1.48;;;;;;;;;;5052009;28;20210;-43
2022/08/23 14:07:35;;;;;;;1.88;1.75;;;;;;;;;;5046668;28;20249;-45
2022/08/23 14:10:04;;;;;;;1.77;1.45;;;;;;;;;;5061749;28;20211;-44
2022/08/23 14:12:33;;;;;;;3.00;1.73;;;;;;;;;;5061318;28;20199;-43
2022/08/23 14:15:01;;;;;;;1.85;1.52;;;;;;;;;;5068978;28;20197;-43
2022/08/23 14:17:28;;;;;;;2.28;1.67;;;;;;;;;;5032873;28;20726;-44
2022/08/23 14:19:55;;;;;;;1.83;1.60;;;;;;;;;;5060672;28;20200;-44
2022/08/23 14:22:23;;;;;;;1.52;1.30;;;;;;;;;;5059030;28;20203;-45
2022/08/23 14:24:50;;;;;;;2.60;1.90;;;;;;;;;;5047745;28;20232;-44
2022/08/23 14:27:18;;;;;;;2.83;1.50;;;;;;;;;;5055825;28;20601;-44
2022/08/23 14:29:45;;;;;;;1.65;1.55;;;;;;;;;;5048662;28;20213;-41
2022/08/23 14:32:12;;;;;;;2.33;1.67;;;;;;;;;;5042492;28;20205;-44
2022/08/23 14:34:39;;;;;;;2.05;1.85;;;;;;;;;;5047659;28;20659;-41
2022/08/23 14:37:06;;;;;;;1.63;1.30;;;;;;;;;;5051023;28;20236;-41
2022/08/23 14:39:34;;;;;;;3.63;1.60;;;;;;;;;;5053611;28;20231;-44
2022/08/23 14:42:01;;;;;;;2.05;1.75;;;;;;;;;;5058165;28;20204;-43
2022/08/23 14:44:30;;;;;;;1.45;1.20;;;;;;;;;;5048377;28;20263;-44
2022/08/23 14:46:57;;;;;;;2.55;2.08;;;;;;;;;;5043736;28;20225;-43
2022/08/23 14:49:24;;;;;;;2.85;1.58;;;;;;;;;;5047598;28;20648;-42
2022/08/23 14:51:51;;;;;;;1.73;1.63;;;;;;;;;;5051594;28;20204;-42
2022/08/23 14:54:20;;;;;;;2.30;1.48;;;;;;;;;;5042465;28;20212;-43
2022/08/23 14:56:47;;;;;;;2.25;1.48;;;;;;;;;;5060575;28;20213;-42
2022/08/23 14:59:15;;;;;;;3.45;1.80;;;;;;;;;;5067665;28;20682;-45
2022/08/23 15:01:44;;;;;;;4.03;1.45;;;;;;;;;;5060118;28;20307;-44
2022/08/23 15:04:12;;;;;;;3.28;1.70;;;;;;;;;;5036146;28;20260;-44
2022/08/23 15:06:40;;;;;;;1.90;1.75;;;;;;;;;;5067273;28;20197;-41
2022/08/23 15:09:08;;;;;;;2.40;2.05;;;;;;;;;;5040279;28;20234;-41
2022/08/23 15:11:35;;;;;;;3.28;1.92;;;;;;;;;;5055778;28;20209;-43
2022/08/23 15:14:02;;;;;;;7.53;1.80;;;;;;;;;;5047531;28;20209;-44
2022/08/23 15:16:29;;;;;;;6.15;1.77;;;;;;;;;;5036375;28;20207;-43